createdAt,value
2018-08-20T00:00:20.917Z,20.77
2018-08-20T00:02:48.048Z,21.13
2018-08-20T00:05:15.200Z,18.97
2018-08-20T00:07:42.305Z,22.60
2018-08-20T00:10:10.048Z,20.33
2018-08-20T00:12:37.324Z,17.00
2018-08-20T00:15:04.576Z,17.83
2018-08-20T00:17:31.684Z,19.30
2018-08-20T00:19:58.792Z,16.43
2018-08-20T00:22:25.904Z,15.10
2018-08-20T00:25:06.336Z,15.17
2018-08-20T00:27:33.489Z,13.17
2018-08-20T00:30:00.610Z,14.43
2018-08-20T00:32:27.726Z,17.40
2018-08-20T00:34:54.889Z,13.90
2018-08-20T00:37:21.997Z,17.20
2018-08-20T00:39:49.096Z,15.60
2018-08-20T00:42:16.275Z,14.23
2018-08-20T00:44:43.374Z,16.30
2018-08-20T00:47:10.468Z,16.97
2018-08-20T00:49:37.583Z,16.83
2018-08-20T00:52:04.703Z,15.50
2018-08-20T00:54:31.811Z,13.40
2018-08-20T00:56:58.921Z,15.73
2018-08-20T00:59:26.028Z,15.43
2018-08-20T01:01:53.120Z,12.77
2018-08-20T01:04:20.233Z,11.20
2018-08-20T01:06:47.369Z,11.40
2018-08-20T01:09:14.459Z,12.30
2018-08-20T01:11:41.569Z,10.50
2018-08-20T01:14:08.764Z,13.67
2018-08-20T01:16:35.868Z,12.33
2018-08-20T01:19:02.989Z,9.70
2018-08-20T01:21:30.104Z,8.73
2018-08-20T01:23:57.220Z,9.83
2018-08-20T01:26:24.332Z,9.37
2018-08-20T01:28:51.436Z,10.20
2018-08-20T01:31:18.592Z,12.03
2018-08-20T01:33:45.684Z,8.43
2018-08-20T01:36:12.805Z,8.60
2018-08-20T01:38:39.909Z,9.80
2018-08-20T01:41:07.004Z,8.47
2018-08-20T01:43:34.100Z,9.77
2018-08-20T01:46:01.239Z,9.40
2018-08-20T01:48:28.351Z,9.90
2018-08-20T01:50:55.472Z,8.53
2018-08-20T01:53:22.571Z,8.50
2018-08-20T01:55:49.684Z,8.63
2018-08-20T01:58:16.820Z,9.10
2018-08-20T02:00:43.984Z,7.67
2018-08-20T02:03:11.100Z,7.93
2018-08-20T02:05:38.244Z,9.27
2018-08-20T02:08:05.380Z,9.30
2018-08-20T02:10:32.503Z,9.73
2018-08-20T02:12:59.596Z,7.67
2018-08-20T02:15:26.732Z,9.97
2018-08-20T02:17:54.168Z,10.53
2018-08-20T02:20:21.301Z,9.00
2018-08-20T02:22:48.415Z,8.33
2018-08-20T02:25:15.522Z,8.13
2018-08-20T02:27:42.644Z,10.57
2018-08-20T02:30:12.447Z,10.13
2018-08-20T02:32:39.681Z,9.43
2018-08-20T02:35:07.404Z,8.90
2018-08-20T02:37:41.041Z,8.60
2018-08-20T02:40:09.076Z,9.17
2018-08-20T02:42:36.256Z,9.90
2018-08-20T02:45:04.809Z,6.93
2018-08-20T02:47:31.898Z,5.90
2018-08-20T02:49:58.988Z,8.93
2018-08-20T02:52:26.138Z,7.67
2018-08-20T02:54:53.253Z,9.50
2018-08-20T02:57:20.368Z,9.17
2018-08-20T02:59:47.536Z,7.03
2018-08-20T03:02:14.700Z,5.73
2018-08-20T03:04:41.805Z,7.37
2018-08-20T03:07:08.924Z,6.60
2018-08-20T03:09:36.044Z,9.17
2018-08-20T03:12:03.204Z,9.03
2018-08-20T03:14:30.292Z,8.50
2018-08-20T03:16:57.441Z,11.27
2018-08-20T03:19:24.548Z,8.27
2018-08-20T03:21:51.657Z,7.30
2018-08-20T03:24:18.757Z,7.50
2018-08-20T03:26:45.865Z,8.03
2018-08-20T03:29:12.993Z,10.20
2018-08-20T03:31:40.131Z,7.47
2018-08-20T03:34:07.217Z,9.53
2018-08-20T03:36:34.337Z,11.77
2018-08-20T03:39:01.460Z,11.47
2018-08-20T03:41:28.664Z,9.30
2018-08-20T03:43:55.753Z,12.00
2018-08-20T03:46:22.859Z,9.63
2018-08-20T03:48:49.984Z,10.07
2018-08-20T03:51:17.106Z,10.47
2018-08-20T03:53:44.245Z,7.90
2018-08-20T03:56:11.381Z,10.00
2018-08-20T03:58:38.492Z,12.33
2018-08-20T04:01:05.616Z,12.30
2018-08-20T04:03:32.696Z,13.73
2018-08-20T04:05:59.791Z,12.93
2018-08-20T04:08:26.888Z,13.90
2018-08-20T04:10:54.012Z,10.87
2018-08-20T04:13:21.152Z,13.30
2018-08-20T04:15:48.235Z,17.67
2018-08-20T04:18:15.335Z,16.37
2018-08-20T04:20:42.441Z,21.30
2018-08-20T04:23:09.533Z,18.90
2018-08-20T04:25:36.630Z,17.50
2018-08-20T04:28:03.789Z,17.13
2018-08-20T04:30:30.916Z,19.80
2018-08-20T04:32:58.024Z,19.93
2018-08-20T04:35:25.137Z,21.77
2018-08-20T04:37:52.244Z,21.17
2018-08-20T04:40:19.371Z,23.27
2018-08-20T04:42:46.496Z,24.60
2018-08-20T04:45:13.648Z,21.93
2018-08-20T04:47:40.742Z,23.80
2018-08-20T04:50:09.305Z,26.00
2018-08-20T04:52:36.706Z,25.93
2018-08-20T04:55:03.805Z,23.20
2018-08-20T04:57:30.903Z,28.43
2018-08-20T04:59:58.006Z,27.87
2018-08-20T05:02:25.117Z,30.50
2018-08-20T05:04:52.245Z,30.80
2018-08-20T05:07:19.341Z,32.80
2018-08-20T05:09:46.460Z,31.20
2018-08-20T05:12:13.554Z,31.17
2018-08-20T05:14:40.659Z,39.37
2018-08-20T05:17:07.781Z,35.27
2018-08-20T05:19:34.912Z,36.80
2018-08-20T05:22:02.052Z,44.97
2018-08-20T05:24:29.144Z,42.10
2018-08-20T05:26:56.272Z,47.83
2018-08-20T05:29:23.460Z,39.13
2018-08-20T05:31:50.529Z,45.70
2018-08-20T05:34:17.648Z,51.90
2018-08-20T05:36:44.776Z,53.50
2018-08-20T05:39:11.931Z,57.43
2018-08-20T05:41:39.034Z,53.23
2018-08-20T05:44:06.204Z,51.07
2018-08-20T05:46:33.377Z,46.03
2018-08-20T05:49:00.488Z,54.80
2018-08-20T05:51:27.656Z,60.40
2018-08-20T05:53:54.752Z,57.50
2018-08-20T05:56:21.848Z,59.30
2018-08-20T05:58:48.964Z,60.13
2018-08-20T06:01:16.132Z,52.53
2018-08-20T06:03:43.265Z,56.37
2018-08-20T06:06:10.363Z,56.90
2018-08-20T06:08:37.465Z,56.77
2018-08-20T06:11:04.604Z,57.97
2018-08-20T06:13:31.724Z,64.87
2018-08-20T06:15:58.848Z,59.53
2018-08-20T06:18:25.956Z,56.80
2018-08-20T06:20:53.099Z,63.90
2018-08-20T06:23:20.224Z,59.23
2018-08-20T06:25:47.385Z,62.17
2018-08-20T06:28:14.516Z,64.57
2018-08-20T06:30:41.692Z,66.83
2018-08-20T06:33:08.824Z,62.90
2018-08-20T06:35:35.947Z,73.13
2018-08-20T06:38:03.133Z,69.47
2018-08-20T06:40:30.244Z,66.23
2018-08-20T06:42:57.356Z,62.73
2018-08-20T06:45:24.480Z,73.07
2018-08-20T06:47:51.599Z,67.20
2018-08-20T06:50:18.796Z,66.73
2018-08-20T06:52:45.937Z,72.97
2018-08-20T06:55:14.388Z,76.57
2018-08-20T06:57:42.453Z,75.50
2018-08-20T07:00:10.732Z,73.60
2018-08-20T07:02:38.391Z,77.23
2018-08-20T07:05:06.256Z,70.07
2018-08-20T07:07:33.416Z,75.00
2018-08-20T07:10:00.529Z,72.73
2018-08-20T07:12:27.681Z,75.50
2018-08-20T07:14:54.795Z,74.87
2018-08-20T07:17:21.903Z,73.90
2018-08-20T07:19:49.004Z,77.87
2018-08-20T07:22:16.128Z,75.00
2018-08-20T07:24:43.265Z,76.27
2018-08-20T07:27:10.374Z,71.83
2018-08-20T07:29:38.950Z,66.23
2018-08-20T07:32:08.641Z,71.37
2018-08-20T07:34:36.580Z,68.37
2018-08-20T07:37:04.305Z,67.30
2018-08-20T07:39:31.415Z,74.70
2018-08-20T07:41:58.504Z,67.50
2018-08-20T07:44:25.628Z,70.60
2018-08-20T07:46:52.729Z,66.67
2018-08-20T07:49:19.845Z,65.30
2018-08-20T07:51:48.389Z,66.77
2018-08-20T07:54:15.828Z,60.10
2018-08-20T07:56:42.953Z,65.10
2018-08-20T07:59:10.152Z,64.07
2018-08-20T08:01:37.289Z,65.90
2018-08-20T08:04:04.425Z,64.63
2018-08-20T08:06:31.589Z,62.13
2018-08-20T08:08:58.737Z,62.97
2018-08-20T08:11:25.878Z,61.93
2018-08-20T08:13:53.005Z,60.17
2018-08-20T08:16:20.217Z,55.50
2018-08-20T08:18:47.290Z,55.20
2018-08-20T08:21:14.480Z,55.53
2018-08-20T08:23:41.609Z,58.40
2018-08-20T08:26:08.729Z,55.20
2018-08-20T08:28:35.852Z,56.53
2018-08-20T08:31:02.984Z,49.97
2018-08-20T08:33:30.104Z,52.80
2018-08-20T08:35:57.212Z,49.20
2018-08-20T08:38:24.349Z,46.47
2018-08-20T08:40:51.496Z,46.03
2018-08-20T08:43:18.597Z,49.10
2018-08-20T08:45:45.772Z,47.40
2018-08-20T08:48:13.021Z,47.10
2018-08-20T08:50:40.224Z,51.00
2018-08-20T08:53:07.365Z,47.57
2018-08-20T08:55:34.484Z,45.80
2018-08-20T08:58:01.609Z,46.53
2018-08-20T09:00:28.758Z,45.83
2018-08-20T09:02:55.840Z,50.30
2018-08-20T09:05:22.970Z,40.93
2018-08-20T09:07:50.096Z,47.77
2018-08-20T09:10:17.249Z,45.23
2018-08-20T09:12:44.424Z,48.73
2018-08-20T09:15:14.641Z,46.63
2018-08-20T09:17:42.012Z,41.70
2018-08-20T09:20:11.325Z,42.93
2018-08-20T09:22:38.594Z,43.43
2018-08-20T09:25:06.652Z,44.63
2018-08-20T09:27:33.750Z,44.33
2018-08-20T09:30:00.888Z,43.00
2018-08-20T09:32:28.025Z,43.57
2018-08-20T09:34:55.125Z,41.83
2018-08-20T09:37:22.228Z,41.53
2018-08-20T09:39:49.326Z,39.20
2018-08-20T09:42:16.432Z,43.70
2018-08-20T09:44:43.620Z,43.40
2018-08-20T09:47:11.074Z,40.03
2018-08-20T09:49:38.217Z,39.57
2018-08-20T09:52:05.348Z,39.37
2018-08-20T09:54:32.444Z,40.30
2018-08-20T09:56:59.576Z,35.77
2018-08-20T09:59:26.677Z,33.30
2018-08-20T10:01:53.788Z,33.33
2018-08-20T10:04:20.911Z,29.63
2018-08-20T10:06:48.036Z,30.97
2018-08-20T10:09:15.156Z,30.13
2018-08-20T10:11:42.262Z,30.50
2018-08-20T10:14:09.376Z,32.93
2018-08-20T10:16:36.503Z,29.90
2018-08-20T10:19:03.660Z,28.40
2018-08-20T10:21:30.824Z,21.83
2018-08-20T10:23:57.920Z,23.00
2018-08-20T10:26:25.093Z,19.60
2018-08-20T10:28:52.211Z,18.37
2018-08-20T10:31:19.352Z,18.33
2018-08-20T10:33:46.465Z,15.10
2018-08-20T10:36:13.608Z,15.87
2018-08-20T10:38:40.713Z,16.37
2018-08-20T10:41:07.886Z,14.23
2018-08-20T10:43:35.013Z,17.17
2018-08-20T10:46:07.789Z,13.37
2018-08-20T10:48:34.889Z,12.30
2018-08-20T10:51:02.033Z,13.60
2018-08-20T10:53:29.152Z,11.87
2018-08-20T10:55:56.280Z,12.47
2018-08-20T10:58:23.414Z,9.20
2018-08-20T11:00:50.540Z,12.93
2018-08-20T11:03:17.672Z,14.97
2018-08-20T11:05:44.793Z,13.83
2018-08-20T11:08:11.896Z,17.07
2018-08-20T11:10:39.102Z,11.90
2018-08-20T11:13:06.209Z,13.50
2018-08-20T11:15:33.314Z,11.00
2018-08-20T11:18:00.453Z,10.10
2018-08-20T11:20:27.576Z,10.80
2018-08-20T11:22:54.761Z,12.13
2018-08-20T11:25:21.921Z,10.00
2018-08-20T11:27:49.055Z,11.67
2018-08-20T11:30:16.487Z,11.13
2018-08-20T11:32:43.606Z,10.93
2018-08-20T11:35:11.468Z,12.67
2018-08-20T11:37:38.629Z,9.93
2018-08-20T11:40:06.481Z,10.73
2018-08-20T11:42:33.586Z,11.47
2018-08-20T11:45:00.708Z,14.33
2018-08-20T11:47:27.853Z,13.00
2018-08-20T11:49:54.997Z,11.17
2018-08-20T11:52:22.105Z,11.37
2018-08-20T11:54:49.492Z,10.57
2018-08-20T11:57:16.616Z,12.37
2018-08-20T11:59:43.738Z,10.30
2018-08-20T12:02:10.899Z,11.30
2018-08-20T12:04:38.009Z,9.87
2018-08-20T12:07:05.587Z,11.63
2018-08-20T12:09:32.611Z,10.53
2018-08-20T12:11:59.752Z,11.90
2018-08-20T12:14:26.876Z,8.97
2018-08-20T12:16:54.081Z,9.80
2018-08-20T12:19:21.178Z,9.90
2018-08-20T12:21:48.313Z,10.03
2018-08-20T12:24:15.437Z,10.93
2018-08-20T12:26:42.568Z,8.30
2018-08-20T12:29:09.663Z,7.47
2018-08-20T12:31:36.776Z,10.87
2018-08-20T12:34:03.889Z,7.93
2018-08-20T12:36:31.014Z,10.13
2018-08-20T12:38:58.132Z,10.37
2018-08-20T12:41:25.252Z,11.83
2018-08-20T12:43:52.449Z,9.73
2018-08-20T12:46:19.645Z,8.20
2018-08-20T12:48:48.659Z,8.13
2018-08-20T12:51:15.789Z,7.73
2018-08-20T12:53:43.093Z,8.30
2018-08-20T12:56:10.604Z,8.53
2018-08-20T12:58:41.214Z,7.97
2018-08-20T13:01:08.361Z,8.70
2018-08-20T13:03:35.478Z,8.77
2018-08-20T13:06:02.609Z,8.27
2018-08-20T13:08:29.713Z,9.53
2018-08-20T13:10:56.805Z,8.00
2018-08-20T13:13:23.918Z,8.70
2018-08-20T13:15:51.094Z,11.67
2018-08-20T13:18:18.189Z,8.17
2018-08-20T13:20:45.342Z,8.13
2018-08-20T13:23:12.481Z,8.90
2018-08-20T13:25:39.608Z,8.10
2018-08-20T13:28:06.725Z,8.93
2018-08-20T13:30:33.863Z,8.23
2018-08-20T13:33:00.956Z,9.40
2018-08-20T13:35:28.056Z,6.20
2018-08-20T13:37:55.180Z,7.80
2018-08-20T13:40:22.293Z,8.23
2018-08-20T13:42:49.408Z,5.87
2018-08-20T13:45:16.555Z,5.73
2018-08-20T13:47:43.672Z,5.83
2018-08-20T13:50:14.385Z,5.93
2018-08-20T13:52:43.012Z,7.50
2018-08-20T13:55:10.137Z,9.80
2018-08-20T13:57:44.883Z,6.27
2018-08-20T14:00:12.513Z,5.90
2018-08-20T14:02:39.825Z,5.43
2018-08-20T14:05:07.031Z,5.67
2018-08-20T14:07:34.173Z,5.90
2018-08-20T14:10:01.375Z,4.93
2018-08-20T14:12:28.512Z,5.20
2018-08-20T14:14:55.632Z,6.17
2018-08-20T14:17:23.076Z,4.90
2018-08-20T14:19:50.200Z,5.33
2018-08-20T14:22:17.320Z,5.23
2018-08-20T14:24:44.444Z,6.93
2018-08-20T14:27:11.561Z,6.93
2018-08-20T14:29:38.686Z,7.37
2018-08-20T14:32:05.798Z,3.43
2018-08-20T14:34:32.914Z,5.03
2018-08-20T14:37:00.097Z,4.57
2018-08-20T14:39:27.174Z,4.67
2018-08-20T14:41:54.304Z,5.63
2018-08-20T14:44:21.458Z,4.77
2018-08-20T14:46:48.589Z,8.60
2018-08-20T14:49:15.694Z,5.50
2018-08-20T14:51:42.845Z,4.57
2018-08-20T14:54:09.932Z,4.27
2018-08-20T14:56:37.089Z,4.77
2018-08-20T14:59:04.332Z,4.90
2018-08-20T15:01:31.449Z,4.40
2018-08-20T15:03:58.567Z,5.40
2018-08-20T15:06:25.712Z,4.10
2018-08-20T15:08:52.816Z,5.73
2018-08-20T15:11:19.948Z,4.73
2018-08-20T15:13:47.060Z,5.90
2018-08-20T15:16:14.193Z,5.63
2018-08-20T15:18:41.292Z,5.70
2018-08-20T15:21:08.484Z,4.90
2018-08-20T15:23:35.587Z,3.40
2018-08-20T15:26:02.730Z,5.20
2018-08-20T15:28:29.837Z,5.90
2018-08-20T15:30:56.972Z,4.73
2018-08-20T15:33:24.085Z,4.47
2018-08-20T15:35:51.168Z,4.00
2018-08-20T15:38:18.301Z,5.57
2018-08-20T15:40:45.416Z,5.50
2018-08-20T15:43:12.513Z,5.00
2018-08-20T15:45:39.656Z,3.93
2018-08-20T15:48:06.888Z,5.83
2018-08-20T15:50:33.984Z,5.57
2018-08-20T15:53:01.097Z,3.80
2018-08-20T15:55:28.188Z,4.57
2018-08-20T15:57:55.306Z,5.03
2018-08-20T16:00:22.449Z,4.83
2018-08-20T16:02:49.581Z,4.17
2018-08-20T16:05:16.753Z,8.77
2018-08-20T16:07:43.865Z,2.80
2018-08-20T16:10:11.662Z,4.00
2018-08-20T16:12:39.174Z,4.80
2018-08-20T16:15:07.353Z,3.93
2018-08-20T16:17:34.794Z,2.93
2018-08-20T16:20:01.913Z,4.27
2018-08-20T16:22:29.208Z,2.77
2018-08-20T16:24:56.349Z,4.03
2018-08-20T16:27:23.504Z,4.47
2018-08-20T16:29:50.612Z,5.20
2018-08-20T16:32:17.781Z,3.83
2018-08-20T16:34:44.890Z,3.50
2018-08-20T16:37:12.012Z,3.10
2018-08-20T16:39:39.201Z,4.47
2018-08-20T16:42:06.288Z,3.13
2018-08-20T16:44:33.413Z,3.20
2018-08-20T16:47:00.558Z,3.43
2018-08-20T16:49:27.688Z,3.17
2018-08-20T16:51:54.860Z,2.87
2018-08-20T16:54:22.100Z,4.13
2018-08-20T16:56:49.249Z,4.87
2018-08-20T16:59:16.384Z,3.73
2018-08-20T17:01:43.520Z,4.23
2018-08-20T17:04:29.196Z,6.67
2018-08-20T17:06:58.338Z,3.93
2018-08-20T17:09:25.486Z,4.53
2018-08-20T17:11:52.641Z,3.00
2018-08-20T17:14:19.749Z,3.70
2018-08-20T17:16:46.900Z,3.87
2018-08-20T17:19:14.037Z,3.83
2018-08-20T17:21:41.145Z,2.83
2018-08-20T17:24:08.313Z,3.80
2018-08-20T17:26:35.432Z,3.60
2018-08-20T17:29:07.185Z,2.60
2018-08-20T17:31:34.284Z,2.27
2018-08-20T17:34:02.242Z,5.80
2018-08-20T17:36:29.376Z,3.13
2018-08-20T17:38:56.506Z,3.90
2018-08-20T17:41:23.652Z,4.17
2018-08-20T17:43:50.773Z,4.07
2018-08-20T17:46:17.921Z,3.43
2018-08-20T17:48:45.084Z,2.90
2018-08-20T17:51:13.490Z,2.93
2018-08-20T17:53:53.404Z,2.83
2018-08-20T17:56:20.588Z,4.40
2018-08-20T17:58:53.353Z,5.10
2018-08-20T18:01:20.528Z,3.10
2018-08-20T18:03:47.612Z,4.43
2018-08-20T18:06:14.731Z,4.17
2018-08-20T18:08:41.868Z,3.47
2018-08-20T18:11:08.993Z,2.50
2018-08-20T18:13:45.448Z,4.83
2018-08-20T18:16:14.751Z,3.00
2018-08-20T18:18:43.643Z,4.73
2018-08-20T18:21:10.797Z,4.70
2018-08-20T18:23:38.146Z,4.70
2018-08-20T18:26:05.273Z,3.57
2018-08-20T18:28:34.720Z,4.57
2018-08-20T18:31:07.348Z,3.00
2018-08-20T18:33:34.480Z,3.67
2018-08-20T18:36:06.116Z,4.47
2018-08-20T18:38:37.873Z,4.97
2018-08-20T18:41:05.080Z,8.20
2018-08-20T18:43:32.259Z,6.03
2018-08-20T18:45:59.324Z,4.47
2018-08-20T18:48:32.002Z,4.77
2018-08-20T18:50:59.146Z,6.10
2018-08-20T18:53:31.106Z,3.97
2018-08-20T18:56:01.465Z,4.67
2018-08-20T18:58:30.268Z,7.03
2018-08-20T19:00:57.393Z,5.80
2018-08-20T19:03:25.404Z,6.37
2018-08-20T19:05:52.773Z,4.47
2018-08-20T19:08:23.925Z,6.13
2018-08-20T19:10:51.079Z,5.57
2018-08-20T19:13:18.241Z,7.90
2018-08-20T19:15:46.916Z,4.20
2018-08-20T19:18:24.526Z,4.77
2018-08-20T19:20:51.653Z,6.93
2018-08-20T19:23:18.805Z,5.37
2018-08-20T19:25:46.370Z,8.13
2018-08-20T19:28:17.948Z,6.93
2018-08-20T19:30:45.159Z,4.70
2018-08-20T19:33:22.101Z,4.70
2018-08-20T19:35:49.253Z,6.70
2018-08-20T19:38:16.408Z,6.73
2018-08-20T19:40:43.510Z,7.40
2018-08-20T19:43:10.644Z,7.50
2018-08-20T19:45:41.584Z,5.20
2018-08-20T19:48:08.921Z,4.83
2018-08-20T19:50:36.048Z,6.77
2018-08-20T19:53:05.159Z,5.17
2018-08-20T19:55:32.291Z,4.70
2018-08-20T19:57:59.462Z,5.30
2018-08-20T20:00:26.536Z,4.57
2018-08-20T20:02:53.645Z,3.50
2018-08-20T20:05:20.764Z,5.07
2018-08-20T20:07:54.449Z,6.97
2018-08-20T20:10:21.584Z,6.23
2018-08-20T20:12:55.096Z,4.10
2018-08-20T20:15:22.953Z,5.57
2018-08-20T20:17:50.430Z,5.27
2018-08-20T20:20:17.870Z,6.47
2018-08-20T20:22:45.008Z,5.00
2018-08-20T20:25:12.128Z,4.73
2018-08-20T20:27:39.259Z,5.60
2018-08-20T20:30:06.889Z,4.60
2018-08-20T20:32:34.812Z,4.23
2018-08-20T20:35:01.950Z,6.67
2018-08-20T20:37:29.090Z,5.27
2018-08-20T20:39:58.101Z,5.90
2018-08-20T20:42:25.269Z,5.57
2018-08-20T20:44:52.456Z,6.20
2018-08-20T20:47:19.593Z,9.47
2018-08-20T20:49:46.712Z,6.83
2018-08-20T20:52:13.856Z,6.37
2018-08-20T20:54:40.977Z,9.10
2018-08-20T20:57:08.124Z,7.80
2018-08-20T20:59:35.276Z,7.70
2018-08-20T21:02:02.397Z,7.83
2018-08-20T21:04:29.521Z,6.67
2018-08-20T21:06:56.668Z,7.67
2018-08-20T21:09:23.824Z,8.07
2018-08-20T21:11:50.940Z,7.00
2018-08-20T21:14:18.068Z,8.93
2018-08-20T21:16:45.185Z,7.27
2018-08-20T21:19:12.288Z,8.57
2018-08-20T21:21:39.405Z,8.67
2018-08-20T21:24:07.093Z,9.37
2018-08-20T21:26:34.221Z,7.87
2018-08-20T21:29:01.319Z,8.73
2018-08-20T21:31:29.933Z,8.57
2018-08-20T21:33:59.139Z,10.67
2018-08-20T21:36:26.265Z,7.50
2018-08-20T21:38:53.436Z,8.47
2018-08-20T21:41:28.283Z,9.23
2018-08-20T21:43:55.413Z,9.13
2018-08-20T21:46:22.569Z,10.90
2018-08-20T21:48:49.708Z,9.60
2018-08-20T21:51:18.832Z,9.20
2018-08-20T21:53:45.936Z,9.53
2018-08-20T21:56:13.177Z,8.67
2018-08-20T21:58:41.475Z,9.17
2018-08-20T22:01:10.278Z,8.73
2018-08-20T22:03:37.475Z,8.20
2018-08-20T22:06:04.621Z,8.63
2018-08-20T22:08:31.757Z,7.73
2018-08-20T22:10:58.885Z,9.00
2018-08-20T22:13:25.989Z,8.80
2018-08-20T22:16:11.144Z,8.80
2018-08-20T22:18:39.540Z,8.87
2018-08-20T22:21:10.116Z,9.57
2018-08-20T22:23:39.285Z,9.10
2018-08-20T22:26:07.580Z,10.67
2018-08-20T22:28:34.692Z,9.53
2018-08-20T22:31:01.836Z,11.87
2018-08-20T22:33:28.979Z,9.37
2018-08-20T22:35:56.155Z,8.97
2018-08-20T22:38:23.206Z,9.13
2018-08-20T22:40:50.309Z,8.43
2018-08-20T22:43:17.416Z,8.27
2018-08-20T22:45:44.517Z,8.80
2018-08-20T22:48:11.646Z,7.97
2018-08-20T22:50:38.763Z,9.00
2018-08-20T22:53:05.883Z,7.70
2018-08-20T22:55:33.008Z,8.60
2018-08-20T22:58:05.952Z,8.77
2018-08-20T23:00:33.116Z,9.33
2018-08-20T23:03:00.243Z,10.77
2018-08-20T23:05:29.756Z,8.07
2018-08-20T23:08:00.451Z,7.20
2018-08-20T23:10:27.685Z,7.57
2018-08-20T23:12:54.817Z,7.03
2018-08-20T23:15:21.949Z,7.97
2018-08-20T23:17:49.120Z,7.83
2018-08-20T23:20:21.755Z,7.60
2018-08-20T23:22:48.848Z,15.33
2018-08-20T23:25:15.984Z,7.53
2018-08-20T23:27:43.128Z,7.93
2018-08-20T23:30:14.463Z,9.43
2018-08-20T23:32:41.693Z,10.57
2018-08-20T23:35:08.788Z,7.53
2018-08-20T23:37:36.036Z,8.50
2018-08-20T23:40:04.064Z,7.97
2018-08-20T23:42:31.185Z,8.77
2018-08-20T23:44:58.316Z,11.67
2018-08-20T23:47:25.444Z,8.23
2018-08-20T23:49:52.589Z,8.87
2018-08-20T23:52:19.719Z,7.40
2018-08-20T23:54:46.819Z,8.87
2018-08-20T23:57:13.918Z,9.10
2018-08-20T23:59:41.030Z,8.97
